首页
METAR-TAF:

METAR-TAF

机场 :

埃德蒙顿国际机场

埃德蒙顿, 艾伯塔, 加拿大

纬度: 53-18N, 经度: 113-35W, 海拔: 715米

当前天气观测

该预报发布于43分钟前的19:00 UTC
风速4节,风向西转西南
温度 8°C
湿度 57%
气压 999 hPa
能見度: 32.2公里
少量云层高于10000英尺
散云层高于15000英尺

METAR: CYEG 171900Z 24004KT 20SM FEW100 SCT150 08/M00 A2950 RMK AC1AC2 SLP013 DENSITY ALT 2600FT

时间: 12:43 (19:43 UTC)

预报

该预报发布于2小时和5分钟前的17:38 UTC
预报有效从17日的 18点(UTC)到 18日的 18点(UTC)
风速3节,风向多变
能見度: 10公里
少量云层高于10000英尺
成为
从 17日的 18点(UTC)到 17日的 20点(UTC)
风速10节,风向西
从 18日的 0600点(UTC)
风速12节,风向西
能見度: 10公里
少量云层高于8000英尺

TAF: CYEG 171738Z 1718/1818 VRB03KT P6SM FEW100 BECMG 1718/1720 27010KT FM180600 28012KT P6SM FEW080 RMK NXT FCST BY 172100Z

超过4000个机场的气象观测和天气预报(METAR&TAF报告)。

可查询的气象台以黄色和红色小点在地图上表示。

将鼠标移到小点上方,可查看气象台名称。

然后点击查看天气观测和预报。

如需切换地图:点击带黑十字的绿色按钮放大地图;点击带横线的绿色按钮缩小地图;或者点击绿色箭头查看邻近地区的地图。


METAR-TAF: